Mora, Idaho
Current Conditions -  °F | °C
As of 10:53 PM on Thursday 18 Dec 2014 (Local Time) from KBOI Reporting Station
Overcast Overcast  
Wind Chill: 39°   Ceiling: 9000
Heat Index: 44°   Visibility: 10mi
Dew Point: 32°   Wind: 10mph
Humidity: 63%   Direction: 120°ESE
Pressure: 30.07"   Gusts: NA
Location:  43.5413°N, 116.27°W
Report Text: KBOI 190553Z 12009KT 10SM OVC090 07/00 A3007 RMK AO2 SLP189 T00670000 10078 20050 55001
Loading
Personal Weather Stations






























Interactive Weather Map New forecast layout! Learn more

10-Day Weather Forecast

Advertisements
Track Severe Weather on mobile